Time;durP1;ratioP1;P1;durP2;ratioP2;P2;SDS_P1;SDS_P2;PMS_P1;PMS_P2;Temp;Humidity;BMP_temperature;BMP_pressure;BME280_temperature;BME280_humidity;BME280_pressure;Samples;Min_cycle;Max_cycle;Signal;HPM_P1;HPM_P2
2022/11/10 00:02:14;;;;;;;1999.90;999.90;;;;;;;12.13;100.00;100612.47;5003601;28;20098;-76
2022/11/10 00:04:58;;;;;;;1999.90;999.90;;;;;;;12.11;100.00;100609.84;5003288;28;20064;-76
2022/11/10 00:07:42;;;;;;;1999.90;999.90;;;;;;;12.09;100.00;100611.63;5002623;28;20511;-76
2022/11/10 00:10:26;;;;;;;1999.90;999.90;;;;;;;12.08;100.00;100615.19;5005137;28;20424;-76
2022/11/10 00:13:10;;;;;;;1999.90;999.90;;;;;;;12.03;100.00;100623.16;5004256;28;20508;-76
2022/11/10 00:18:57;;;;;;;1999.90;999.90;;;;;;;11.96;100.00;100628.53;5006054;28;20128;-76
2022/11/10 00:21:41;;;;;;;1999.90;999.90;;;;;;;11.90;100.00;100640.06;5008264;28;20100;-76
2022/11/10 00:24:25;;;;;;;1999.90;999.90;;;;;;;11.84;100.00;100638.31;5003226;28;20627;-76
2022/11/10 00:27:09;;;;;;;1999.90;999.90;;;;;;;11.79;100.00;100640.13;5002827;28;20104;-76
2022/11/10 00:29:53;;;;;;;1999.90;999.90;;;;;;;11.77;100.00;100641.91;5004044;28;20052;-76
2022/11/10 00:32:36;;;;;;;1999.90;999.90;;;;;;;11.71;100.00;100643.72;5007915;28;20081;-76
2022/11/10 00:35:20;;;;;;;1999.90;999.90;;;;;;;11.60;100.00;100651.75;5007498;28;20834;-76
2022/11/10 00:38:04;;;;;;;1999.90;999.90;;;;;;;11.54;100.00;100657.09;5005690;28;20045;-76
2022/11/10 00:40:48;;;;;;;1999.90;999.90;;;;;;;11.51;100.00;100657.13;5006477;28;20052;-76
2022/11/10 00:43:32;;;;;;;1999.90;999.90;;;;;;;11.49;100.00;100662.41;5002035;28;20049;-76
2022/11/10 00:46:16;;;;;;;1999.90;999.90;;;;;;;11.46;100.00;100661.56;5004945;28;20523;-76
2022/11/10 00:49:00;;;;;;;1999.90;999.90;;;;;;;11.40;100.00;100662.50;5007862;28;20045;-76
2022/11/10 00:51:44;;;;;;;1999.90;999.90;;;;;;;11.35;100.00;100673.09;5006738;28;20412;-76
2022/11/10 00:54:28;;;;;;;1999.90;999.90;;;;;;;11.28;100.00;100668.72;5002821;28;20044;-76
2022/11/10 00:57:12;;;;;;;1999.90;999.90;;;;;;;11.25;100.00;100668.75;5027118;23;20052;-72
2022/11/10 00:59:56;;;;;;;1999.90;999.90;;;;;;;11.22;100.00;100679.34;5022022;28;20576;-73
2022/11/10 01:02:40;;;;;;;1999.90;999.90;;;;;;;11.18;100.00;100680.22;5020143;28;20150;-73
2022/11/10 01:05:24;;;;;;;1999.90;999.90;;;;;;;11.13;100.00;100680.28;5020096;28;20440;-73
2022/11/10 01:08:09;;;;;;;1999.90;999.90;;;;;;;11.10;100.00;100684.69;5002920;28;20053;-73
2022/11/10 01:11:00;;;;;;;1999.90;999.90;;;;;;;11.07;100.00;100685.59;5002004;28;20045;-73
2022/11/10 01:13:45;;;;;;;1999.90;999.90;;;;;;;11.04;100.00;100690.03;5006179;28;20047;-73
2022/11/10 01:16:30;;;;;;;1999.90;999.90;;;;;;;11.02;100.00;100697.94;5004723;28;20095;-73
2022/11/10 01:19:14;;;;;;;1999.90;999.90;;;;;;;10.96;100.00;100701.50;5000071;28;20105;-73
2022/11/10 01:21:59;;;;;;;1999.90;999.90;;;;;;;10.96;100.00;100704.13;5004529;28;20099;-73
2022/11/10 01:24:43;;;;;;;1999.90;999.90;;;;;;;10.99;100.00;100718.22;5003566;28;20520;-73
2022/11/10 01:27:27;;;;;;;1999.90;999.90;;;;;;;10.96;100.00;100714.69;5002826;28;20057;-73
2022/11/10 01:30:11;;;;;;;1999.90;999.90;;;;;;;10.88;100.00;100705.94;5002267;28;20053;-73
2022/11/10 01:32:55;;;;;;;1999.90;999.90;;;;;;;10.86;100.00;100712.09;5001729;28;20480;-73
2022/11/10 01:35:39;;;;;;;1999.90;999.90;;;;;;;10.80;100.00;100726.22;5003711;28;20417;-73
2022/11/10 01:38:26;;;;;;;1999.90;999.90;;;;;;;10.78;100.00;100720.06;5003729;28;20516;-73
2022/11/10 01:41:13;;;;;;;1999.90;999.90;;;;;;;10.73;100.00;100721.84;5006846;28;20057;-73
2022/11/10 01:44:24;;;;;;;1999.90;999.90;;;;;;;10.62;100.00;100718.38;5002926;28;20049;-73
2022/11/10 01:47:08;;;;;;;1999.90;999.90;;;;;;;10.57;100.00;100718.38;5004202;28;20075;-73
2022/11/10 01:49:53;;;;;;;1999.90;999.90;;;;;;;10.56;100.00;100723.63;5004996;28;20084;-73
2022/11/10 01:52:37;;;;;;;1999.90;999.90;;;;;;;10.48;100.00;100723.69;5004441;28;20052;-74
2022/11/10 01:55:23;;;;;;;1999.90;999.90;;;;;;;10.43;100.00;100723.69;5003202;28;20087;-75
2022/11/10 01:58:08;;;;;;;1999.90;999.90;;;;;;;10.43;100.00;100722.81;5003000;28;20056;-75
2022/11/10 02:00:52;;;;;;;1999.90;999.90;;;;;;;10.38;100.00;100722.84;5002266;28;20053;-74
2022/11/10 02:03:46;;;;;;;1999.90;999.90;;;;;;;10.34;100.00;100720.19;5001629;28;20073;-74
2022/11/10 02:06:34;;;;;;;1999.90;999.90;;;;;;;10.28;100.00;100729.88;4998819;28;20404;-74
2022/11/10 02:09:19;;;;;;;1999.90;999.90;;;;;;;10.19;100.00;100727.22;5003314;28;20049;-74
2022/11/10 02:12:04;;;;;;;1999.90;999.90;;;;;;;10.13;100.00;100737.78;5001229;28;20048;-74
2022/11/10 02:14:48;;;;;;;1999.90;999.90;;;;;;;10.12;100.00;100743.06;5000728;28;20045;-75
2022/11/10 02:17:32;;;;;;;1999.90;999.90;;;;;;;10.04;100.00;100751.84;5000867;28;20092;-75
2022/11/10 02:20:19;;;;;;;1999.90;999.90;;;;;;;10.06;100.00;100746.56;5006748;28;20065;-74
2022/11/10 02:23:29;;;;;;;1999.90;999.90;;;;;;;10.06;100.00;100750.09;5001999;28;20056;-74
2022/11/10 02:26:16;;;;;;;1999.90;999.90;;;;;;;10.00;100.00;100751.84;4989184;28;20049;-74
2022/11/10 02:29:00;;;;;;;1999.90;999.90;;;;;;;9.96;100.00;100765.94;5001364;28;20053;-74
2022/11/10 02:31:44;;;;;;;1999.90;999.90;;;;;;;9.92;100.00;100765.03;5000409;28;20057;-74
2022/11/10 02:34:28;;;;;;;1999.90;999.90;;;;;;;9.92;100.00;100770.31;5006234;28;20052;-74
2022/11/10 02:37:12;;;;;;;1999.90;999.90;;;;;;;9.91;100.00;100771.19;5002578;28;20559;-74
2022/11/10 02:39:56;;;;;;;1999.90;999.90;;;;;;;9.87;100.00;100769.41;5002030;28;20100;-74
2022/11/10 02:42:40;;;;;;;1999.90;999.90;;;;;;;9.85;100.00;100784.34;5006206;28;20063;-74
2022/11/10 02:45:24;;;;;;;1999.90;999.90;;;;;;;9.83;100.00;100789.63;5006922;28;20052;-74
2022/11/10 02:48:08;;;;;;;1999.90;999.90;;;;;;;9.82;100.00;100793.16;5004316;28;20088;-74
2022/11/10 02:50:52;;;;;;;1999.90;999.90;;;;;;;9.79;100.00;100795.78;5003189;28;20443;-74
2022/11/10 02:53:36;;;;;;;1999.90;999.90;;;;;;;9.75;100.00;100808.97;5002325;28;20053;-75
2022/11/10 02:56:20;;;;;;;1999.90;999.90;;;;;;;9.81;100.00;100811.59;5001161;28;20045;-74
2022/11/10 02:59:05;;;;;;;1999.90;999.90;;;;;;;9.85;100.00;100810.72;5000929;28;20535;-74
2022/11/10 03:01:49;;;;;;;1999.90;999.90;;;;;;;9.89;100.00;100809.84;5002916;28;20052;-74
2022/11/10 03:04:33;;;;;;;1999.90;999.90;;;;;;;9.96;100.00;100809.00;5000787;28;20424;-74
2022/11/10 03:07:17;;;;;;;1999.90;999.90;;;;;;;10.07;100.00;100809.88;4999578;28;20088;-74
2022/11/10 03:10:01;;;;;;;1999.90;999.90;;;;;;;10.20;100.00;100825.69;5001835;28;20048;-74
2022/11/10 03:12:45;;;;;;;1999.90;999.90;;;;;;;10.35;100.00;100820.47;5000852;28;20053;-74
2022/11/10 03:15:29;;;;;;;1999.90;999.90;;;;;;;10.46;100.00;100823.97;5003371;28;20041;-74
2022/11/10 03:18:13;;;;;;;1999.90;999.90;;;;;;;10.57;100.00;100830.97;5003313;28;20092;-74
2022/11/10 03:20:56;;;;;;;1999.90;999.90;;;;;;;10.64;100.00;100838.03;5002621;28;20474;-74
2022/11/10 03:23:40;;;;;;;1999.90;999.90;;;;;;;10.70;100.00;100832.72;5001679;28;20105;-74
2022/11/10 03:26:24;;;;;;;1999.90;999.90;;;;;;;10.74;100.00;100848.56;5000575;28;20121;-74
2022/11/10 03:29:08;;;;;;;1999.90;999.90;;;;;;;10.82;100.00;100847.66;5002818;28;20072;-74
2022/11/10 03:31:52;;;;;;;1999.90;999.90;;;;;;;10.80;100.00;100854.72;5000586;28;20177;-74
2022/11/10 03:34:36;;;;;;;1999.90;999.90;;;;;;;10.81;100.00;100856.47;5006626;28;20092;-74
2022/11/10 03:37:21;;;;;;;1999.90;999.90;;;;;;;10.81;100.00;100867.91;4999230;28;20671;-74
2022/11/10 03:40:05;;;;;;;1999.90;999.90;;;;;;;10.82;100.00;100869.66;5001008;28;20109;-74
2022/11/10 03:42:49;;;;;;;1999.90;999.90;;;;;;;10.87;100.00;100872.28;5000325;28;20096;-74
2022/11/10 03:45:33;;;;;;;1999.90;999.90;;;;;;;10.89;100.00;100871.38;5000082;28;20046;-74
2022/11/10 03:48:17;;;;;;;1999.90;999.90;;;;;;;10.90;100.00;100883.72;5000322;28;20515;-74
2022/11/10 03:51:00;;;;;;;1999.90;999.90;;;;;;;10.94;100.00;100884.59;5002109;28;20054;-74
2022/11/10 03:53:44;;;;;;;1999.90;999.90;;;;;;;10.98;100.00;100889.00;5001365;28;20096;-74
2022/11/10 03:56:28;;;;;;;1999.90;999.90;;;;;;;10.96;100.00;100881.06;4999948;28;20053;-74
2022/11/10 03:59:12;;;;;;;1999.90;999.90;;;;;;;11.00;100.00;100888.97;5000949;28;20044;-74
2022/11/10 04:01:56;;;;;;;1999.90;999.90;;;;;;;11.03;100.00;100888.97;5003758;28;20527;-74
2022/11/10 04:10:46;;;;;;;;;;;;;;;11.09;100.00;100899.53;5005439;28;20057;-75
2022/11/10 04:16:32;;;;;;;;;;;;;;;11.14;100.00;100906.56;5004496;28;20056;-74
2022/11/10 04:19:16;;;;;;;1999.90;999.90;;;;;;;11.11;100.00;100905.69;5005430;28;19937;-75
2022/11/10 04:22:00;;;;;;;1999.90;999.90;;;;;;;11.10;100.00;100912.72;5008051;28;20108;-74
2022/11/10 04:24:44;;;;;;;1999.90;999.90;;;;;;;11.04;100.00;100917.16;5006422;28;20424;-74
2022/11/10 04:27:28;;;;;;;1999.90;999.90;;;;;;;10.92;100.00;100921.56;5002146;28;20045;-74
2022/11/10 04:30:12;;;;;;;1999.90;999.90;;;;;;;10.88;100.00;100940.06;5006478;28;20069;-74
2022/11/10 04:32:56;;;;;;;1999.90;999.90;;;;;;;10.85;100.00;100927.75;5005720;28;20778;-74
2022/11/10 04:35:40;;;;;;;1999.90;999.90;;;;;;;10.80;100.00;100936.56;5003114;28;20268;-74
2022/11/10 04:38:24;;;;;;;1999.90;999.90;;;;;;;10.76;100.00;100938.31;5003886;28;20042;-74
2022/11/10 04:41:08;;;;;;;1999.90;999.90;;;;;;;10.74;100.00;100943.59;5004819;28;20455;-74
2022/11/10 04:43:53;;;;;;;1999.90;999.90;;;;;;;10.74;100.00;100945.34;5005874;28;20096;-74
2022/11/10 04:46:39;;;;;;;1999.90;999.90;;;;;;;10.74;100.00;100958.53;5005127;28;20052;-74
2022/11/10 04:49:23;;;;;;;1999.90;999.90;;;;;;;10.74;100.00;100955.91;5004847;28;20048;-74
2022/11/10 04:52:07;;;;;;;1999.90;999.90;;;;;;;10.77;100.00;100955.91;5006225;28;20127;-74
2022/11/10 04:54:50;;;;;;;1999.90;999.90;;;;;;;10.79;100.00;100959.41;5007774;28;20107;-74
2022/11/10 04:57:34;;;;;;;1999.90;999.90;;;;;;;10.78;100.00;100962.94;5007645;28;20107;-75
2022/11/10 05:00:18;;;;;;;1999.90;999.90;;;;;;;10.80;100.00;100965.59;5006269;28;20053;-75
2022/11/10 05:03:05;;;;;;;1999.90;999.90;;;;;;;10.79;100.00;100967.34;5009259;28;20523;-75
2022/11/10 05:05:48;;;;;;;1999.90;999.90;;;;;;;10.72;100.00;100970.88;5003133;28;20092;-74
2022/11/10 05:08:33;;;;;;;1999.90;999.90;;;;;;;10.74;100.00;100979.66;5003944;28;20119;-75
2022/11/10 05:11:17;;;;;;;1999.90;999.90;;;;;;;10.68;100.00;100975.25;5005702;28;20096;-75
2022/11/10 05:14:00;;;;;;;1999.90;999.90;;;;;;;10.69;100.00;100981.44;5003384;28;20100;-75
2022/11/10 05:16:44;;;;;;;1999.90;999.90;;;;;;;10.63;100.00;100982.28;5002208;28;20089;-75
2022/11/10 05:19:28;;;;;;;1999.90;999.90;;;;;;;10.51;100.00;100977.91;5009987;28;20053;-74
2022/11/10 05:22:12;;;;;;;1999.90;999.90;;;;;;;10.38;100.00;100988.44;5006638;28;20045;-74
2022/11/10 05:24:56;;;;;;;1999.90;999.90;;;;;;;10.20;100.00;100990.13;5008465;28;20091;-75
2022/11/10 05:27:40;;;;;;;1999.90;999.90;;;;;;;10.03;100.00;100990.06;5008728;28;20041;-75
2022/11/10 05:30:24;;;;;;;1999.90;999.90;;;;;;;9.91;100.00;100991.78;5006084;28;20076;-74
2022/11/10 05:33:08;;;;;;;1999.90;999.90;;;;;;;9.73;100.00;100996.09;5006059;28;20053;-74
2022/11/10 05:35:52;;;;;;;1999.90;999.90;;;;;;;9.63;100.00;100994.28;5003546;28;20133;-74
2022/11/10 05:38:35;;;;;;;1999.90;999.90;;;;;;;9.54;100.00;101003.03;5006260;28;20136;-74
2022/11/10 05:41:19;;;;;;;1999.90;999.90;;;;;;;9.46;100.00;101004.75;5004721;28;20052;-75
2022/11/10 05:44:03;;;;;;;1999.90;999.90;;;;;;;9.41;100.00;101007.34;5009045;28;20428;-74
2022/11/10 05:46:47;;;;;;;1999.90;999.90;;;;;;;9.37;100.00;101020.47;5001367;28;20076;-75
2022/11/10 05:49:31;;;;;;;1999.90;999.90;;;;;;;9.25;100.00;101021.28;5004740;28;20096;-74
2022/11/10 05:52:15;;;;;;;1999.90;999.90;;;;;;;9.26;100.00;101037.97;5005215;28;20045;-74
2022/11/10 05:54:59;;;;;;;1999.90;999.90;;;;;;;9.24;100.00;101037.94;5007025;28;20045;-74
2022/11/10 05:57:44;;;;;;;1999.90;999.90;;;;;;;9.21;100.00;101041.44;5004914;28;20089;-74
2022/11/10 06:00:30;;;;;;;1999.90;999.90;;;;;;;9.12;100.00;101040.50;5008393;28;20129;-74
2022/11/10 06:03:16;;;;;;;1999.90;999.90;;;;;;;9.07;100.00;101052.75;5005985;28;20200;-74
2022/11/10 06:06:00;;;;;;;1999.90;999.90;;;;;;;8.96;100.00;101060.53;5004433;28;20045;-74
2022/11/10 06:08:44;;;;;;;1999.90;999.90;;;;;;;8.92;100.00;101066.66;5004754;28;20097;-74
2022/11/10 06:11:28;;;;;;;1999.90;999.90;;;;;;;8.91;100.00;101073.66;5001897;28;20053;-74
2022/11/10 06:14:12;;;;;;;1999.90;999.90;;;;;;;8.93;100.00;101086.81;5001433;28;20181;-74
2022/11/10 06:16:56;;;;;;;1999.90;999.90;;;;;;;9.01;100.00;101093.03;5001562;28;20142;-74
2022/11/10 06:19:40;;;;;;;1999.90;999.90;;;;;;;9.08;100.00;101102.78;5004362;28;20125;-74
2022/11/10 06:22:23;;;;;;;1999.90;999.90;;;;;;;9.13;100.00;101111.59;5001867;28;20112;-74
2022/11/10 06:25:08;;;;;;;1999.90;999.90;;;;;;;9.19;100.00;101111.63;5001593;28;20127;-74
2022/11/10 06:27:52;;;;;;;1999.90;999.90;;;;;;;9.23;100.00;101122.22;5007535;28;20057;-74
2022/11/10 06:30:37;;;;;;;1999.90;999.90;;;;;;;9.19;100.00;101127.44;5006211;28;20053;-74
2022/11/10 06:33:21;;;;;;;1999.90;999.90;;;;;;;9.17;100.00;101134.47;5003836;28;20040;-74
2022/11/10 06:36:05;;;;;;;1999.90;999.90;;;;;;;9.14;100.00;101141.44;5002493;28;20127;-74
2022/11/10 06:38:49;;;;;;;1999.90;999.90;;;;;;;9.11;100.00;101150.19;5003786;28;20127;-74
2022/11/10 06:41:33;;;;;;;1999.90;999.90;;;;;;;9.06;100.00;101151.91;5004015;28;20045;-74
2022/11/10 06:44:17;;;;;;;1999.90;999.90;;;;;;;9.06;100.00;101154.53;5006503;28;20132;-74
2022/11/10 06:47:01;;;;;;;1999.90;999.90;;;;;;;9.06;100.00;101157.16;5006057;28;20045;-74
2022/11/10 06:49:45;;;;;;;1999.90;999.90;;;;;;;9.08;100.00;101167.72;5003233;28;20069;-74
2022/11/10 06:52:30;;;;;;;1999.90;999.90;;;;;;;9.06;100.00;101175.59;5000415;28;20559;-74
2022/11/10 06:55:14;;;;;;;1999.90;999.90;;;;;;;9.04;100.00;101176.44;5006145;28;20470;-74
2022/11/10 07:00:51;;;;;;;1999.90;999.90;;;;;;;9.07;100.00;101192.31;4990084;28;20126;-75
2022/11/10 07:03:36;;;;;;;1999.90;999.90;;;;;;;9.06;100.00;101193.16;4991706;28;20408;-75
2022/11/10 07:06:20;;;;;;;1999.90;999.90;;;;;;;9.02;100.00;101192.25;4991212;28;20041;-75
2022/11/10 07:09:04;;;;;;;1999.90;999.90;;;;;;;8.97;100.00;101200.09;4990073;28;20048;-75
2022/11/10 07:11:48;;;;;;;1999.90;999.90;;;;;;;8.94;100.00;101210.59;4989639;28;20080;-75
2022/11/10 07:14:32;;;;;;;1999.90;999.90;;;;;;;8.92;100.00;101221.97;4988867;28;20080;-75
2022/11/10 07:17:16;;;;;;;1999.90;999.90;;;;;;;8.92;100.00;101229.88;4987541;28;20767;-75
2022/11/10 07:20:00;;;;;;;1999.90;999.90;;;;;;;8.99;100.00;101236.97;4989379;28;20057;-75
2022/11/10 07:22:44;;;;;;;1999.90;999.90;;;;;;;9.11;100.00;101250.25;4989994;28;20045;-75
2022/11/10 07:25:30;;;;;;;1999.90;999.90;;;;;;;9.27;100.00;101251.31;4989360;28;20109;-75
2022/11/10 07:28:14;;;;;;;1999.90;999.90;;;;;;;9.39;100.00;101251.44;4988791;28;20187;-75
2022/11/10 07:31:01;;;;;;;1999.90;999.90;;;;;;;9.52;100.00;101255.09;4988164;28;20181;-75
2022/11/10 07:33:46;;;;;;;1999.90;999.90;;;;;;;9.61;100.00;101252.53;4989642;28;20049;-75
2022/11/10 07:36:30;;;;;;;1999.90;999.90;;;;;;;9.80;100.00;101263.28;4994569;28;20066;-75
2022/11/10 07:39:14;;;;;;;1999.90;999.90;;;;;;;10.00;100.00;101266.94;4995363;28;20118;-75
2022/11/10 07:41:58;;;;;;;1999.90;999.90;;;;;;;10.15;100.00;101267.94;4993539;28;20073;-75
2022/11/10 07:44:42;;;;;;;1999.90;999.90;;;;;;;10.29;100.00;101266.28;4992716;28;20053;-76
2022/11/10 07:47:26;;;;;;;1999.90;999.90;;;;;;;10.45;100.00;101276.09;4987071;28;20104;-76
2022/11/10 07:50:10;;;;;;;1999.90;999.90;;;;;;;10.50;99.38;101276.97;4994952;28;20109;-75
2022/11/10 07:53:21;;;;;;;1999.90;999.90;;;;;;;10.64;97.55;101286.78;4994871;28;20092;-75
2022/11/10 07:56:05;;;;;;;1999.90;999.90;;;;;;;10.63;97.30;101295.53;4991297;28;20085;-75
2022/11/10 07:58:49;;;;;;;1999.90;999.90;;;;;;;10.61;97.01;101297.28;4991767;28;20535;-75
2022/11/10 08:01:33;;;;;;;1999.90;999.90;;;;;;;10.68;97.20;101304.38;4993711;28;20567;-75
2022/11/10 08:04:17;;;;;;;1999.90;999.90;;;;;;;10.72;96.53;101304.41;4994413;28;20412;-75
2022/11/10 08:07:02;;;;;;;1999.90;999.90;;;;;;;10.63;96.51;101308.75;4993116;28;20085;-76
2022/11/10 08:09:46;;;;;;;1999.90;999.90;;;;;;;10.55;97.16;101310.44;4976507;28;20137;-75
2022/11/10 08:12:29;;;;;;;1999.90;999.90;;;;;;;10.52;97.48;101309.56;4991091;28;20050;-76
2022/11/10 08:15:14;;;;;;;1999.90;999.90;;;;;;;10.50;97.30;101316.56;4993255;28;20097;-76
2022/11/10 08:18:27;;;;;;;1999.90;999.90;;;;;;;10.57;96.77;101320.16;4990786;28;20054;-75
2022/11/10 08:21:11;;;;;;;1999.90;999.90;;;;;;;10.72;96.52;101322.00;4987508;28;20057;-75
2022/11/10 08:23:55;;;;;;;1999.90;999.90;;;;;;;11.00;95.91;101332.69;4994494;28;20100;-75
2022/11/10 08:26:39;;;;;;;1999.90;999.90;;;;;;;11.22;95.09;101331.06;4992423;28;20053;-75
2022/11/10 08:29:23;;;;;;;1999.90;999.90;;;;;;;11.49;93.25;101331.13;4990093;28;20092;-76
2022/11/10 08:32:07;;;;;;;1999.90;999.90;;;;;;;11.68;90.96;101337.34;4991802;28;20459;-75
2022/11/10 08:34:51;;;;;;;1999.90;999.90;;;;;;;11.85;92.14;101348.84;4994037;28;20049;-75
2022/11/10 08:37:34;;;;;;;1999.90;999.90;;;;;;;12.13;89.58;101341.00;4993353;28;20081;-75
2022/11/10 08:40:19;;;;;;;1999.90;999.90;;;;;;;12.31;88.68;101347.16;4993243;28;20100;-75
2022/11/10 08:43:06;;;;;;;1999.90;999.90;;;;;;;12.41;87.31;101360.38;4991802;28;20423;-75
2022/11/10 08:45:53;;;;;;;1999.90;999.90;;;;;;;12.50;86.54;101365.69;4990135;28;20049;-75
2022/11/10 08:48:37;;;;;;;1999.90;999.90;;;;;;;12.61;86.67;101368.31;4991080;28;20106;-75
2022/11/10 08:51:21;;;;;;;1999.90;999.90;;;;;;;12.53;84.93;101370.09;4990675;28;20169;-76
2022/11/10 08:54:05;;;;;;;1999.90;999.90;;;;;;;12.38;85.17;101370.09;4993921;28;20049;-75
2022/11/10 08:56:49;;;;;;;1999.90;999.90;;;;;;;12.34;86.50;101374.53;4992158;28;20049;-76
2022/11/10 08:59:33;;;;;;;1999.90;999.90;;;;;;;12.20;87.01;101386.84;4991660;28;20058;-76
2022/11/10 09:02:16;;;;;;;1999.90;999.90;;;;;;;12.15;86.98;101378.00;4991276;28;20052;-76
2022/11/10 09:05:00;;;;;;;1999.90;999.90;;;;;;;12.14;87.63;101392.16;4989458;28;20527;-76
2022/11/10 09:07:46;;;;;;;1999.90;999.90;;;;;;;12.13;87.97;101396.56;4992612;28;20559;-77
2022/11/10 09:10:34;;;;;;;1999.90;999.90;;;;;;;12.20;86.70;101400.06;4992458;28;20049;-75
2022/11/10 09:13:20;;;;;;;1999.90;999.90;;;;;;;12.28;86.99;101400.97;4988139;28;20054;-76
2022/11/10 09:16:04;;;;;;;1999.90;999.90;;;;;;;12.44;85.88;101415.09;4973398;28;20044;-76
2022/11/10 09:18:48;;;;;;;1999.90;999.90;;;;;;;12.43;85.64;101400.97;4987303;28;20049;-76
2022/11/10 09:21:32;;;;;;;1999.90;999.90;;;;;;;12.41;86.07;101399.22;4993244;28;20048;-75
2022/11/10 09:24:16;;;;;;;1999.90;999.90;;;;;;;12.39;85.45;101414.19;4989742;28;20105;-76
2022/11/10 09:27:00;;;;;;;1999.90;999.90;;;;;;;12.23;85.71;101423.88;4992845;28;20520;-76
2022/11/10 09:29:44;;;;;;;1999.90;999.90;;;;;;;12.20;86.20;101424.78;4991927;28;20065;-76
2022/11/10 09:32:28;;;;;;;1999.90;999.90;;;;;;;12.27;86.33;101426.56;4993121;28;20045;-76
2022/11/10 09:35:12;;;;;;;1999.90;999.90;;;;;;;12.47;86.10;101434.53;4991377;28;20424;-76
2022/11/10 09:37:56;;;;;;;1999.90;999.90;;;;;;;12.54;85.54;101439.81;4987959;28;20057;-76
2022/11/10 09:40:56;;;;;;;1999.90;999.90;;;;;;;12.61;85.44;101446.88;4992906;28;20119;-75
2022/11/10 09:44:21;;;;;;;1999.90;999.90;;;;;;;12.49;85.18;101453.03;4988401;28;20045;-75
2022/11/10 09:47:25;;;;;;;1999.90;999.90;;;;;;;12.53;85.83;101460.13;4990989;28;20092;-76
2022/11/10 09:50:17;;;;;;;1999.90;999.90;;;;;;;12.55;86.26;101458.34;4989288;28;20737;-75
2022/11/10 09:53:01;;;;;;;1999.90;999.90;;;;;;;12.56;86.38;101462.75;4989687;28;20053;-76
2022/11/10 09:55:48;;;;;;;1999.90;999.90;;;;;;;12.53;85.45;101460.13;4992626;28;20188;-76
2022/11/10 09:58:38;;;;;;;1999.90;999.90;;;;;;;12.46;86.53;101450.41;4989971;28;20456;-76
2022/11/10 10:01:33;;;;;;;1999.90;999.90;;;;;;;12.46;86.00;101453.03;4992570;28;20508;-75
2022/11/10 10:04:34;;;;;;;1999.90;999.90;;;;;;;12.47;86.53;101441.56;4989087;28;20108;-76
2022/11/10 10:07:33;;;;;;;1999.90;999.90;;;;;;;12.55;86.76;101447.78;4990462;28;20041;-76
2022/11/10 10:10:27;;;;;;;1999.90;999.90;;;;;;;12.68;87.09;101451.28;4991731;28;20100;-75
2022/11/10 10:13:45;;;;;;;1999.90;999.90;;;;;;;12.87;85.59;101446.88;4991223;28;20053;-76
2022/11/10 10:16:35;;;;;;;1999.90;999.90;;;;;;;13.03;85.28;101445.09;4988396;28;20045;-76
2022/11/10 10:19:37;;;;;;;1999.90;999.90;;;;;;;13.04;84.16;101450.34;4988516;28;20061;-76
2022/11/10 10:22:46;;;;;;;1999.90;999.90;;;;;;;12.91;84.69;101446.84;4990274;28;20048;-76
2022/11/10 10:25:31;;;;;;;1999.90;999.90;;;;;;;12.87;84.87;101442.44;4985911;28;20126;-76
2022/11/10 10:28:17;;;;;;;1999.90;999.90;;;;;;;12.84;85.41;101445.09;4990597;28;20048;-76
2022/11/10 10:31:20;;;;;;;1999.90;999.90;;;;;;;12.88;84.51;101443.31;4989364;28;20643;-76
2022/11/10 10:34:11;;;;;;;1999.90;999.90;;;;;;;12.83;84.16;101453.91;4991872;28;20049;-75
2022/11/10 10:36:55;;;;;;;1999.90;999.90;;;;;;;12.86;84.40;101447.72;4989622;28;20109;-75
2022/11/10 10:39:47;;;;;;;1999.90;999.90;;;;;;;12.85;84.65;101445.97;4990020;28;20112;-76
2022/11/10 10:42:36;;;;;;;1999.90;999.90;;;;;;;12.81;84.92;101444.22;4991976;28;20153;-76
2022/11/10 10:45:27;;;;;;;1999.90;999.90;;;;;;;12.88;84.87;101446.84;4989734;28;20065;-75
2022/11/10 10:48:29;;;;;;;1999.90;999.90;;;;;;;12.82;84.08;101446.88;4989849;28;20058;-76
2022/11/10 10:51:29;;;;;;;1999.90;999.90;;;;;;;12.96;85.52;101444.19;4991395;28;20100;-75
2022/11/10 10:54:29;;;;;;;1999.90;999.90;;;;;;;13.15;82.65;101447.69;4989110;28;20077;-76
2022/11/10 10:57:22;;;;;;;1999.90;999.90;;;;;;;13.21;84.10;101460.06;4990079;28;20575;-75
2022/11/10 11:00:18;;;;;;;1999.90;999.90;;;;;;;13.15;82.32;101466.25;4990018;28;20057;-76
2022/11/10 11:03:11;;;;;;;1999.90;999.90;;;;;;;13.25;81.92;101451.22;4990120;28;20202;-76
2022/11/10 11:06:13;;;;;;;1999.90;999.90;;;;;;;13.36;81.55;101449.44;4982846;28;20045;-75
2022/11/10 11:09:13;;;;;;;1999.90;999.90;;;;;;;13.35;81.21;101451.22;4990069;28;20103;-76
2022/11/10 11:12:07;;;;;;;1999.90;999.90;;;;;;;13.50;81.17;101452.94;4991389;28;20516;-75
2022/11/10 11:14:52;;;;;;;1999.90;999.90;;;;;;;13.58;79.85;101448.47;4987969;28;20049;-75
2022/11/10 11:17:36;;;;;;;1999.90;999.90;;;;;;;13.59;79.64;101462.63;4976583;28;20041;-75
2022/11/10 11:20:27;;;;;;;1999.90;999.90;;;;;;;13.56;78.51;101470.59;4990932;28;20053;-76
2022/11/10 11:23:42;;;;;;;1999.90;999.90;;;;;;;13.65;77.90;101456.41;4990931;28;20122;-76
2022/11/10 11:26:45;;;;;;;1999.90;999.90;;;;;;;13.79;78.14;101462.56;4989958;28;20078;-76
2022/11/10 11:29:40;;;;;;;1999.90;999.90;;;;;;;13.93;78.05;101466.00;4988334;28;20057;-76
2022/11/10 11:32:30;;;;;;;1999.90;999.90;;;;;;;14.05;76.93;101472.16;4991009;28;20053;-76
2022/11/10 11:35:30;;;;;;;1999.90;999.90;;;;;;;14.19;76.41;101470.28;4989435;28;20112;-76
2022/11/10 11:38:15;;;;;;;1999.90;999.90;;;;;;;14.18;76.02;101469.41;4990577;28;20045;-76
2022/11/10 11:41:27;;;;;;;1999.90;999.90;;;;;;;14.23;76.21;101461.44;4990209;28;20049;-75
2022/11/10 11:44:29;;;;;;;1999.90;999.90;;;;;;;14.29;76.83;101468.47;4989558;28;20057;-76
2022/11/10 11:47:31;;;;;;;1999.90;999.90;;;;;;;14.44;74.93;101481.66;4991121;28;20085;-76
2022/11/10 11:50:29;;;;;;;1999.90;999.90;;;;;;;14.56;75.88;101464.75;4974096;28;20093;-76
2022/11/10 11:53:25;;;;;;;1999.90;999.90;;;;;;;14.69;74.57;101469.97;4988318;28;20121;-76
2022/11/10 11:56:27;;;;;;;1999.90;999.90;;;;;;;14.99;72.58;101469.72;4989761;28;20712;-76
2022/11/10 11:59:48;;;;;;;1999.90;999.90;;;;;;;14.90;71.99;101466.22;4989199;28;20057;-76
2022/11/10 12:02:59;;;;;;;1999.90;999.90;;;;;;;14.96;70.94;101475.97;4989490;28;20061;-76
2022/11/10 12:05:59;;;;;;;1999.90;999.90;;;;;;;15.03;71.56;101472.31;4987869;28;20109;-76
2022/11/10 12:08:57;;;;;;;1999.90;999.90;;;;;;;15.20;70.17;101474.81;4989942;28;20081;-76
2022/11/10 12:12:01;;;;;;;1999.90;999.90;;;;;;;15.45;69.73;101474.56;4968540;28;20576;-76
2022/11/10 12:15:09;;;;;;;1999.90;999.90;;;;;;;15.54;68.63;101470.03;4988917;28;20061;-76
2022/11/10 12:18:08;;;;;;;1999.90;999.90;;;;;;;15.64;68.71;101475.22;4987464;28;20538;-75
2022/11/10 12:21:06;;;;;;;1999.90;999.90;;;;;;;15.77;67.97;101468.88;4991221;28;20061;-76
2022/11/10 12:24:32;;;;;;;1999.90;999.90;;;;;;;15.87;67.00;101472.31;4993525;28;20578;-78
2022/11/10 12:27:39;;;;;;;1999.90;999.90;;;;;;;15.93;67.12;101465.13;4990886;28;20508;-76
2022/11/10 12:30:23;;;;;;;1999.90;999.90;;;;;;;15.90;68.09;101466.94;4993382;28;20527;-76